Time;durP1;ratioP1;P1;durP2;ratioP2;P2;SDS_P1;SDS_P2;PMS_P1;PMS_P2;Temp;Humidity;BMP_temperature;BMP_pressure;BME280_temperature;BME280_humidity;BME280_pressure;Samples;Min_cycle;Max_cycle;Signal;HPM_P1;HPM_P2
2021/12/22 00:01:50;;;;;;;21.38;14.55;;;;;;;;;;5014212;28;20396;-48
2021/12/22 00:04:16;;;;;;;28.27;14.45;;;;;;;;;;5013723;28;20176;-49
2021/12/22 00:06:42;;;;;;;23.33;14.68;;;;;;;;;;5013269;28;20195;-49
2021/12/22 00:09:09;;;;;;;35.05;15.95;;;;;;;;;;5013738;28;20249;-49
2021/12/22 00:11:35;;;;;;;28.67;14.85;;;;;;;;;;5014044;28;20195;-49
2021/12/22 00:14:01;;;;;;;26.40;14.85;;;;;;;;;;5013522;28;20600;-49
2021/12/22 00:16:27;;;;;;;20.80;16.13;;;;;;;;;;5013464;28;20203;-49
2021/12/22 00:18:53;;;;;;;19.43;13.80;;;;;;;;;;5013808;28;20566;-48
2021/12/22 00:21:20;;;;;;;28.58;14.43;;;;;;;;;;5013625;28;20900;-49
2021/12/22 00:23:46;;;;;;;20.15;13.27;;;;;;;;;;5013768;28;20234;-49
2021/12/22 00:26:14;;;;;;;26.05;15.65;;;;;;;;;;5013159;28;20188;-49
2021/12/22 00:28:40;;;;;;;21.67;14.95;;;;;;;;;;5013593;28;20547;-48
2021/12/22 00:31:12;;;;;;;24.05;13.38;;;;;;;;;;5013869;28;20644;-49
2021/12/22 00:33:45;;;;;;;24.30;14.30;;;;;;;;;;5013816;28;20168;-49
2021/12/22 00:36:11;;;;;;;20.08;14.70;;;;;;;;;;5013083;28;20204;-49
2021/12/22 00:38:37;;;;;;;23.48;12.73;;;;;;;;;;5013782;28;20164;-49
2021/12/22 00:41:04;;;;;;;20.75;12.90;;;;;;;;;;5013486;28;20172;-49
2021/12/22 00:43:30;;;;;;;23.73;13.50;;;;;;;;;;5013737;28;20314;-49
2021/12/22 00:45:56;;;;;;;22.75;13.15;;;;;;;;;;5012961;28;20222;-48
2021/12/22 00:48:23;;;;;;;24.50;13.30;;;;;;;;;;5013435;28;20168;-49
2021/12/22 00:50:49;;;;;;;27.23;15.27;;;;;;;;;;5013375;28;20426;-49
2021/12/22 00:53:15;;;;;;;22.60;12.65;;;;;;;;;;5013492;28;20176;-48
2021/12/22 00:55:42;;;;;;;22.42;13.30;;;;;;;;;;5012701;28;20191;-49
2021/12/22 00:58:08;;;;;;;20.45;13.40;;;;;;;;;;5013356;28;20195;-49
2021/12/22 01:00:34;;;;;;;19.58;13.27;;;;;;;;;;5013342;28;20169;-48
2021/12/22 01:03:00;;;;;;;24.58;13.25;;;;;;;;;;5013388;28;20172;-49
2021/12/22 01:05:26;;;;;;;18.92;12.80;;;;;;;;;;5012415;28;20267;-48
2021/12/22 01:07:52;;;;;;;18.02;11.02;;;;;;;;;;5013117;28;20176;-49
2021/12/22 01:10:23;;;;;;;23.55;13.50;;;;;;;;;;5012484;28;20564;-48
2021/12/22 01:12:49;;;;;;;25.70;14.45;;;;;;;;;;5012768;28;20169;-49
2021/12/22 01:15:15;;;;;;;26.67;12.95;;;;;;;;;;5012131;28;20227;-48
2021/12/22 01:17:45;;;;;;;23.30;13.90;;;;;;;;;;5012917;28;20585;-49
2021/12/22 01:20:25;;;;;;;26.77;11.43;;;;;;;;;;5013054;28;20164;-49
2021/12/22 01:22:52;;;;;;;20.98;12.25;;;;;;;;;;5012982;28;20176;-49
2021/12/22 01:25:22;;;;;;;20.98;12.82;;;;;;;;;;5014567;28;20222;-49
2021/12/22 01:27:48;;;;;;;20.75;13.18;;;;;;;;;;5016668;28;20187;-48
2021/12/22 01:30:18;;;;;;;16.00;13.00;;;;;;;;;;5016179;28;20196;-49
2021/12/22 01:32:44;;;;;;;21.08;13.07;;;;;;;;;;5016497;28;20176;-49
2021/12/22 01:35:11;;;;;;;21.07;12.87;;;;;;;;;;5015696;28;20172;-48
2021/12/22 01:37:38;;;;;;;28.77;13.68;;;;;;;;;;5016219;28;20406;-49
2021/12/22 01:40:05;;;;;;;22.10;14.82;;;;;;;;;;5015869;28;20172;-49
2021/12/22 01:42:31;;;;;;;18.73;12.35;;;;;;;;;;5015889;28;20169;-48
2021/12/22 01:45:13;;;;;;;21.77;13.63;;;;;;;;;;5015043;28;20190;-48
2021/12/22 01:50:45;;;;;;;19.10;11.32;;;;;;;;;;5015789;28;20653;-49
2021/12/22 01:53:11;;;;;;;17.65;12.88;;;;;;;;;;5015832;28;20253;-49
2021/12/22 01:55:38;;;;;;;16.73;12.67;;;;;;;;;;5014868;28;20208;-49
2021/12/22 01:58:06;;;;;;;21.85;13.57;;;;;;;;;;5015441;28;20443;-49
2021/12/22 02:00:32;;;;;;;25.85;13.98;;;;;;;;;;5015057;28;20176;-50
2021/12/22 02:02:58;;;;;;;21.42;13.20;;;;;;;;;;5014641;28;20176;-49
2021/12/22 02:05:25;;;;;;;23.83;14.40;;;;;;;;;;5014037;28;20255;-49
2021/12/22 02:07:56;;;;;;;22.27;12.90;;;;;;;;;;5014468;28;20473;-48
2021/12/22 02:12:51;;;;;;;20.13;12.93;;;;;;;;;;5015291;28;20181;-48
2021/12/22 02:15:19;;;;;;;18.73;13.00;;;;;;;;;;5014659;28;20475;-49
2021/12/22 02:17:45;;;;;;;20.85;13.05;;;;;;;;;;5015397;28;20528;-49
2021/12/22 02:20:11;;;;;;;20.58;12.30;;;;;;;;;;5015184;28;20164;-48
2021/12/22 02:22:40;;;;;;;18.42;13.15;;;;;;;;;;5015231;28;20686;-49
2021/12/22 02:25:14;;;;;;;25.13;14.20;;;;;;;;;;5014280;28;20172;-49
2021/12/22 02:27:54;;;;;;;27.83;15.43;;;;;;;;;;5014911;28;20193;-49
2021/12/22 02:30:26;;;;;;;19.92;13.18;;;;;;;;;;5014947;28;20199;-49
2021/12/22 02:35:26;;;;;;;27.30;14.10;;;;;;;;;;5013981;28;20640;-49
2021/12/22 02:37:52;;;;;;;15.15;12.07;;;;;;;;;;5014335;28;20160;-49
2021/12/22 02:40:25;;;;;;;21.17;12.88;;;;;;;;;;5014710;28;20164;-48
2021/12/22 02:43:04;;;;;;;15.65;11.00;;;;;;;;;;5014825;28;20222;-48
2021/12/22 02:45:30;;;;;;;27.15;16.05;;;;;;;;;;5013930;28;20168;-48
2021/12/22 02:47:56;;;;;;;23.80;14.55;;;;;;;;;;5014412;28;20607;-48
2021/12/22 02:50:22;;;;;;;20.33;12.50;;;;;;;;;;5014265;28;20184;-49
2021/12/22 02:53:06;;;;;;;19.27;13.57;;;;;;;;;;5014690;28;20201;-48
2021/12/22 02:55:45;;;;;;;18.38;12.02;;;;;;;;;;5013811;28;20706;-49
2021/12/22 02:58:17;;;;;;;20.05;14.30;;;;;;;;;;5014427;28;20199;-48
2021/12/22 03:01:03;;;;;;;22.35;13.80;;;;;;;;;;5014141;28;20173;-49
2021/12/22 03:06:01;;;;;;;14.20;12.18;;;;;;;;;;5013394;28;20195;-48
2021/12/22 03:08:27;;;;;;;23.90;11.85;;;;;;;;;;5014090;28;20223;-48
2021/12/22 03:10:55;;;;;;;16.73;12.10;;;;;;;;;;5014029;28;20176;-49
2021/12/22 03:13:21;;;;;;;19.02;11.23;;;;;;;;;;5013733;28;20839;-49
2021/12/22 03:15:47;;;;;;;18.42;11.82;;;;;;;;;;5013215;28;20199;-49
2021/12/22 03:18:13;;;;;;;16.33;11.40;;;;;;;;;;5013938;28;20165;-49
2021/12/22 03:20:40;;;;;;;27.40;11.90;;;;;;;;;;5013877;28;20195;-49
2021/12/22 03:23:06;;;;;;;14.73;10.90;;;;;;;;;;5013844;28;20260;-49
2021/12/22 03:25:32;;;;;;;20.20;10.97;;;;;;;;;;5013340;28;20242;-48
2021/12/22 03:28:03;;;;;;;18.30;11.70;;;;;;;;;;5013684;28;20907;-49
2021/12/22 03:30:29;;;;;;;16.60;12.23;;;;;;;;;;5013647;28;20200;-49
2021/12/22 03:32:55;;;;;;;22.58;11.38;;;;;;;;;;5013642;28;20663;-48
2021/12/22 03:35:22;;;;;;;17.63;11.10;;;;;;;;;;5012831;28;20160;-49
2021/12/22 03:37:56;;;;;;;22.00;12.25;;;;;;;;;;5013773;28;20395;-50
2021/12/22 03:40:23;;;;;;;16.20;11.70;;;;;;;;;;5013460;28;20651;-48
2021/12/22 03:42:49;;;;;;;17.23;11.32;;;;;;;;;;5013539;28;20184;-50
2021/12/22 03:45:16;;;;;;;13.95;10.23;;;;;;;;;;5012791;28;20200;-49
2021/12/22 03:47:42;;;;;;;16.90;11.48;;;;;;;;;;5012946;28;20260;-49
2021/12/22 03:50:09;;;;;;;32.50;12.93;;;;;;;;;;5013464;28;20196;-49
2021/12/22 03:52:35;;;;;;;24.02;14.13;;;;;;;;;;5013605;28;20211;-49
2021/12/22 03:55:01;;;;;;;18.80;13.35;;;;;;;;;;5012500;28;20168;-49
2021/12/22 03:57:28;;;;;;;22.35;12.88;;;;;;;;;;5013178;28;20184;-49
2021/12/22 03:59:58;;;;;;;20.45;13.98;;;;;;;;;;5013199;28;20195;-49
2021/12/22 04:02:24;;;;;;;17.58;12.30;;;;;;;;;;5013243;28;20176;-49
2021/12/22 04:04:51;;;;;;;20.30;13.35;;;;;;;;;;5012489;28;20706;-49
2021/12/22 04:07:17;;;;;;;27.48;15.25;;;;;;;;;;5013258;28;20279;-48
2021/12/22 04:09:43;;;;;;;27.20;16.33;;;;;;;;;;5013111;28;20233;-48
2021/12/22 04:12:09;;;;;;;26.37;13.63;;;;;;;;;;5013125;28;20176;-49
2021/12/22 04:14:35;;;;;;;24.67;14.40;;;;;;;;;;5012215;28;20399;-48
2021/12/22 04:17:01;;;;;;;18.90;14.50;;;;;;;;;;5012863;28;20188;-48
2021/12/22 04:19:27;;;;;;;25.95;14.15;;;;;;;;;;5012510;28;20404;-48
2021/12/22 04:21:53;;;;;;;25.67;14.40;;;;;;;;;;5012639;28;20373;-49
2021/12/22 04:24:20;;;;;;;20.20;11.93;;;;;;;;;;5012518;28;20168;-49
2021/12/22 04:26:46;;;;;;;18.85;13.05;;;;;;;;;;5012008;28;20944;-48
2021/12/22 04:29:13;;;;;;;21.70;12.63;;;;;;;;;;5012217;28;20636;-48
2021/12/22 04:31:40;;;;;;;25.08;14.05;;;;;;;;;;5012562;28;20161;-49
2021/12/22 04:34:08;;;;;;;19.05;12.77;;;;;;;;;;5013014;28;20194;-48
2021/12/22 04:36:37;;;;;;;26.98;15.15;;;;;;;;;;5011463;28;20177;-48
2021/12/22 04:39:04;;;;;;;25.63;14.15;;;;;;;;;;5012234;28;20191;-48
2021/12/22 04:41:30;;;;;;;23.13;15.02;;;;;;;;;;5012012;28;20169;-48
2021/12/22 04:43:56;;;;;;;19.53;11.30;;;;;;;;;;5012177;28;20179;-49
2021/12/22 04:46:22;;;;;;;19.87;13.70;;;;;;;;;;5011202;28;20434;-48
2021/12/22 04:48:48;;;;;;;21.75;12.73;;;;;;;;;;5012004;28;20888;-48
2021/12/22 04:51:24;;;;;;;29.38;13.18;;;;;;;;;;5011851;28;20164;-48
2021/12/22 04:54:06;;;;;;;20.83;13.48;;;;;;;;;;5012113;28;20164;-49
2021/12/22 04:56:32;;;;;;;22.70;15.30;;;;;;;;;;5010940;28;20180;-49
2021/12/22 04:58:58;;;;;;;19.85;15.35;;;;;;;;;;5013992;28;20188;-49
2021/12/22 05:01:24;;;;;;;16.02;13.00;;;;;;;;;;5015716;28;20644;-49
2021/12/22 05:03:50;;;;;;;23.20;13.80;;;;;;;;;;5015851;28;20172;-49
2021/12/22 05:06:16;;;;;;;20.53;12.80;;;;;;;;;;5015156;28;20192;-48
2021/12/22 05:08:42;;;;;;;23.60;14.87;;;;;;;;;;5015823;28;20494;-48
2021/12/22 05:11:08;;;;;;;22.47;13.53;;;;;;;;;;5015629;28;20911;-48
2021/12/22 05:13:35;;;;;;;18.10;12.88;;;;;;;;;;5015744;28;20883;-48
2021/12/22 05:16:04;;;;;;;21.85;14.05;;;;;;;;;;5014843;28;20731;-48
2021/12/22 05:18:49;;;;;;;19.08;12.55;;;;;;;;;;5015523;28;20668;-49
2021/12/22 05:21:15;;;;;;;18.92;11.27;;;;;;;;;;5015653;28;20214;-48
2021/12/22 05:23:41;;;;;;;27.77;13.68;;;;;;;;;;5015511;28;20184;-48
2021/12/22 05:26:07;;;;;;;25.50;12.60;;;;;;;;;;5014679;28;20231;-48
2021/12/22 05:28:33;;;;;;;22.50;13.73;;;;;;;;;;5015095;28;20222;-48
2021/12/22 05:30:59;;;;;;;17.70;13.37;;;;;;;;;;5015350;28;20204;-48
2021/12/22 05:33:26;;;;;;;22.90;13.07;;;;;;;;;;5015197;28;20438;-48
2021/12/22 05:35:52;;;;;;;24.90;12.45;;;;;;;;;;5014614;28;20494;-48
2021/12/22 05:38:18;;;;;;;23.15;13.23;;;;;;;;;;5015243;28;20164;-48
2021/12/22 05:40:44;;;;;;;17.73;13.23;;;;;;;;;;5015176;28;20195;-48
2021/12/22 05:43:10;;;;;;;20.50;13.98;;;;;;;;;;5014991;28;20168;-48
2021/12/22 05:45:36;;;;;;;20.03;12.70;;;;;;;;;;5014350;28;20212;-48
2021/12/22 05:48:02;;;;;;;17.83;12.55;;;;;;;;;;5015077;28;20430;-49
2021/12/22 05:50:28;;;;;;;18.73;12.25;;;;;;;;;;5014797;28;20203;-48
2021/12/22 05:52:54;;;;;;;17.67;12.10;;;;;;;;;;5014076;28;20202;-48
2021/12/22 05:55:20;;;;;;;15.90;11.07;;;;;;;;;;5013745;28;20438;-48
2021/12/22 05:57:46;;;;;;;20.80;12.23;;;;;;;;;;5012713;28;20267;-48
2021/12/22 06:00:13;;;;;;;20.92;12.98;;;;;;;;;;5014250;28;20315;-49
2021/12/22 06:02:39;;;;;;;21.42;13.98;;;;;;;;;;5014159;28;20545;-48
2021/12/22 06:05:05;;;;;;;23.27;12.38;;;;;;;;;;5013743;28;20609;-48
2021/12/22 06:07:31;;;;;;;18.38;12.38;;;;;;;;;;5014139;28;20193;-48
2021/12/22 06:09:57;;;;;;;20.57;12.27;;;;;;;;;;5011899;28;20219;-48
2021/12/22 06:12:23;;;;;;;13.70;10.40;;;;;;;;;;5014536;28;20497;-48
2021/12/22 06:14:49;;;;;;;16.87;11.53;;;;;;;;;;5013161;28;20411;-48
2021/12/22 06:17:15;;;;;;;17.80;12.05;;;;;;;;;;5014004;28;20423;-49
2021/12/22 06:19:41;;;;;;;15.10;10.05;;;;;;;;;;5013749;28;20160;-48
2021/12/22 06:22:07;;;;;;;16.25;11.32;;;;;;;;;;5013898;28;20164;-49
2021/12/22 06:24:33;;;;;;;17.13;11.43;;;;;;;;;;5013155;28;20168;-48
2021/12/22 06:26:59;;;;;;;14.43;11.20;;;;;;;;;;5014131;28;20196;-49
2021/12/22 06:29:26;;;;;;;17.87;10.50;;;;;;;;;;5014148;28;20473;-48
2021/12/22 06:31:52;;;;;;;17.05;11.32;;;;;;;;;;5014351;28;20415;-49
2021/12/22 06:34:18;;;;;;;17.15;10.55;;;;;;;;;;5014103;28;20168;-49
2021/12/22 06:36:44;;;;;;;15.13;10.48;;;;;;;;;;5013375;28;20223;-48
2021/12/22 06:39:10;;;;;;;22.85;11.55;;;;;;;;;;5014116;28;20204;-48
2021/12/22 06:41:36;;;;;;;21.43;11.60;;;;;;;;;;5013824;28;20188;-49
2021/12/22 06:44:05;;;;;;;19.92;11.88;;;;;;;;;;5013988;28;20900;-48
2021/12/22 06:46:31;;;;;;;13.00;10.70;;;;;;;;;;5013132;28;20188;-48
2021/12/22 06:48:57;;;;;;;17.55;11.63;;;;;;;;;;5013816;28;20196;-48
2021/12/22 06:51:23;;;;;;;19.23;12.43;;;;;;;;;;5013711;28;20517;-48
2021/12/22 06:53:49;;;;;;;16.42;10.80;;;;;;;;;;5013800;28;20823;-48
2021/12/22 06:56:15;;;;;;;15.02;10.48;;;;;;;;;;5012587;28;20327;-48
2021/12/22 06:58:41;;;;;;;16.83;10.60;;;;;;;;;;5013694;28;20168;-48
2021/12/22 07:01:07;;;;;;;16.42;12.00;;;;;;;;;;5013430;28;20395;-48
2021/12/22 07:03:33;;;;;;;18.35;11.45;;;;;;;;;;5013932;28;20168;-48
2021/12/22 07:05:59;;;;;;;16.33;10.17;;;;;;;;;;5012859;28;20192;-48
2021/12/22 07:08:25;;;;;;;17.33;11.77;;;;;;;;;;5013609;28;20891;-48
2021/12/22 07:10:51;;;;;;;22.52;11.43;;;;;;;;;;5013216;28;20206;-48
2021/12/22 07:13:17;;;;;;;23.30;11.95;;;;;;;;;;5013410;28;20168;-49
2021/12/22 07:15:43;;;;;;;26.65;12.25;;;;;;;;;;5012768;28;20191;-50
2021/12/22 07:18:10;;;;;;;16.08;12.30;;;;;;;;;;5013390;28;20618;-48
2021/12/22 07:20:36;;;;;;;21.08;11.02;;;;;;;;;;5013348;28;20172;-48
2021/12/22 07:23:02;;;;;;;22.27;12.03;;;;;;;;;;5012406;28;20577;-48
2021/12/22 07:25:28;;;;;;;18.23;12.88;;;;;;;;;;5012486;28;20407;-48
2021/12/22 07:27:54;;;;;;;22.75;13.30;;;;;;;;;;5013092;28;20568;-49
2021/12/22 07:30:20;;;;;;;20.50;11.30;;;;;;;;;;5013082;28;20196;-49
2021/12/22 07:32:46;;;;;;;16.08;12.00;;;;;;;;;;5013051;28;20466;-49
2021/12/22 07:35:12;;;;;;;20.42;12.63;;;;;;;;;;5012398;28;20699;-49
2021/12/22 07:37:41;;;;;;;20.17;12.97;;;;;;;;;;5013022;28;20172;-49
2021/12/22 07:40:15;;;;;;;18.88;10.38;;;;;;;;;;5013056;28;20414;-48
2021/12/22 07:42:42;;;;;;;20.35;11.77;;;;;;;;;;5013243;28;20172;-48
2021/12/22 07:45:08;;;;;;;17.92;11.25;;;;;;;;;;5012496;28;20513;-48
2021/12/22 07:47:34;;;;;;;16.95;12.07;;;;;;;;;;5012789;28;20184;-49
2021/12/22 07:50:00;;;;;;;16.80;11.50;;;;;;;;;;5012944;28;20192;-48
2021/12/22 07:52:27;;;;;;;11.47;9.27;;;;;;;;;;5012848;28;20429;-48
2021/12/22 07:54:54;;;;;;;14.77;9.40;;;;;;;;;;5012220;28;20407;-50
2021/12/22 07:57:20;;;;;;;16.40;10.90;;;;;;;;;;5013035;28;20228;-49
2021/12/22 07:59:46;;;;;;;11.30;10.10;;;;;;;;;;5012944;28;20227;-49
2021/12/22 08:02:12;;;;;;;14.20;8.90;;;;;;;;;;5012886;28;20168;-49
2021/12/22 08:04:38;;;;;;;13.32;7.65;;;;;;;;;;5011996;28;20786;-49
2021/12/22 08:07:04;;;;;;;7.10;6.40;;;;;;;;;;5013327;28;20276;-49
2021/12/22 08:09:30;;;;;;;8.60;7.23;;;;;;;;;;5012679;28;20287;-50
2021/12/22 08:12:03;;;;;;;10.93;7.27;;;;;;;;;;5012669;28;20392;-49
2021/12/22 08:14:29;;;;;;;9.70;8.73;;;;;;;;;;5012189;28;20487;-49
2021/12/22 08:16:55;;;;;;;11.27;8.32;;;;;;;;;;5012438;28;20283;-48
2021/12/22 08:19:21;;;;;;;13.10;8.90;;;;;;;;;;5012472;28;20226;-48
2021/12/22 08:21:47;;;;;;;16.43;8.33;;;;;;;;;;5012451;28;20411;-49
2021/12/22 08:24:14;;;;;;;6.77;6.17;;;;;;;;;;5012471;28;20437;-49
2021/12/22 08:26:40;;;;;;;7.43;5.95;;;;;;;;;;5011965;28;20419;-49
2021/12/22 08:29:06;;;;;;;9.70;6.33;;;;;;;;;;5012044;28;20338;-49
2021/12/22 08:31:33;;;;;;;9.75;6.20;;;;;;;;;;5012376;28;20403;-49
2021/12/22 08:33:58;;;;;;;7.93;5.60;;;;;;;;;;5011953;28;20168;-49
2021/12/22 08:39:10;;;;;;;6.97;6.28;;;;;;;;;;5012324;28;20477;-50
2021/12/22 08:41:39;;;;;;;9.95;7.70;;;;;;;;;;5012434;28;20176;-49
2021/12/22 08:44:06;;;;;;;11.48;8.15;;;;;;;;;;5012182;28;20165;-49
2021/12/22 08:46:32;;;;;;;10.40;7.63;;;;;;;;;;5011289;28;20283;-49
2021/12/22 08:48:59;;;;;;;10.30;7.85;;;;;;;;;;5011980;28;20667;-50
2021/12/22 08:51:25;;;;;;;9.88;7.13;;;;;;;;;;5012019;28;20172;-49
2021/12/22 08:53:52;;;;;;;11.93;8.55;;;;;;;;;;5012068;28;20215;-49
2021/12/22 08:56:18;;;;;;;7.47;5.95;;;;;;;;;;5011342;28;20227;-49
2021/12/22 08:58:44;;;;;;;15.25;8.43;;;;;;;;;;5011952;28;20175;-49
2021/12/22 09:01:10;;;;;;;13.50;6.80;;;;;;;;;;5011627;28;20168;-49
2021/12/22 09:03:36;;;;;;;12.88;9.07;;;;;;;;;;5011712;28;20435;-49
2021/12/22 09:06:03;;;;;;;14.50;9.77;;;;;;;;;;5010762;28;20212;-49
2021/12/22 09:08:29;;;;;;;15.32;9.73;;;;;;;;;;5011738;28;20950;-49
2021/12/22 09:10:55;;;;;;;14.35;11.43;;;;;;;;;;5011620;28;20270;-48
2021/12/22 09:13:21;;;;;;;13.85;9.25;;;;;;;;;;5011617;28;20192;-49
2021/12/22 09:15:48;;;;;;;22.85;11.25;;;;;;;;;;5010858;28;20219;-49
2021/12/22 09:18:14;;;;;;;14.77;10.98;;;;;;;;;;5011696;28;20257;-49
2021/12/22 09:20:40;;;;;;;14.55;10.20;;;;;;;;;;5011633;28;20200;-50
2021/12/22 09:23:06;;;;;;;10.67;8.70;;;;;;;;;;5011656;28;20200;-49
2021/12/22 09:25:33;;;;;;;10.27;7.93;;;;;;;;;;5011026;28;20438;-49
2021/12/22 09:28:00;;;;;;;10.90;7.35;;;;;;;;;;5011155;28;20588;-49
2021/12/22 09:30:26;;;;;;;12.65;9.07;;;;;;;;;;5011469;28;20250;-49
2021/12/22 09:32:52;;;;;;;6.45;5.70;;;;;;;;;;5010293;28;20168;-49
2021/12/22 09:35:18;;;;;;;6.27;5.67;;;;;;;;;;5010930;28;20516;-49
2021/12/22 09:37:44;;;;;;;8.15;6.05;;;;;;;;;;5011512;28;20490;-49
2021/12/22 09:40:11;;;;;;;7.00;5.65;;;;;;;;;;5011567;28;20171;-49
2021/12/22 09:42:37;;;;;;;7.25;5.60;;;;;;;;;;5011369;28;20172;-49
2021/12/22 09:45:04;;;;;;;7.20;5.38;;;;;;;;;;5011196;28;20263;-50
2021/12/22 09:47:40;;;;;;;8.07;6.20;;;;;;;;;;5014914;28;20215;-50
2021/12/22 09:50:12;;;;;;;10.02;6.20;;;;;;;;;;5015046;28;20568;-49
2021/12/22 09:52:39;;;;;;;7.78;5.13;;;;;;;;;;5015489;28;20190;-49
2021/12/22 09:55:07;;;;;;;6.75;5.93;;;;;;;;;;5019916;28;20176;-50
2021/12/22 09:57:33;;;;;;;6.20;5.25;;;;;;;;;;5014776;28;20223;-49
2021/12/22 10:00:00;;;;;;;7.65;5.40;;;;;;;;;;5018478;28;20180;-50
2021/12/22 10:02:29;;;;;;;5.28;4.78;;;;;;;;;;5023993;28;20654;-50
2021/12/22 10:04:55;;;;;;;5.45;4.95;;;;;;;;;;5032306;28;20178;-50
2021/12/22 10:07:26;;;;;;;6.60;5.38;;;;;;;;;;5019240;28;20228;-51
2021/12/22 10:09:52;;;;;;;8.13;5.10;;;;;;;;;;5023172;28;20184;-50
2021/12/22 10:12:24;;;;;;;5.65;5.10;;;;;;;;;;5024886;28;20176;-50
2021/12/22 10:14:49;;;;;;;10.47;5.27;;;;;;;;;;5019060;28;20169;-50
2021/12/22 10:17:28;;;;;;;6.10;5.50;;;;;;;;;;5023430;28;20426;-49
2021/12/22 10:19:56;;;;;;;6.30;5.50;;;;;;;;;;5034276;28;20409;-50
2021/12/22 10:22:28;;;;;;;6.43;5.00;;;;;;;;;;5034184;28;20395;-50
2021/12/22 10:25:00;;;;;;;7.37;5.03;;;;;;;;;;5033522;28;20411;-50
2021/12/22 10:27:28;;;;;;;6.33;5.70;;;;;;;;;;5034018;28;20421;-50
2021/12/22 10:29:54;;;;;;;6.53;5.07;;;;;;;;;;5034044;28;20454;-50
2021/12/22 10:32:21;;;;;;;10.40;4.83;;;;;;;;;;5034605;28;20700;-52
2021/12/22 10:35:05;;;;;;;7.30;5.50;;;;;;;;;;5033090;28;20405;-53
2021/12/22 10:37:39;;;;;;;5.37;4.67;;;;;;;;;;5030264;28;20425;-53
2021/12/22 10:40:21;;;;;;;8.03;5.97;;;;;;;;;;5014092;28;20868;-53
2021/12/22 10:42:47;;;;;;;5.93;4.73;;;;;;;;;;5014278;28;20414;-53
2021/12/22 10:45:14;;;;;;;6.73;5.63;;;;;;;;;;5013418;28;20400;-52
2021/12/22 10:50:36;;;;;;;8.73;5.97;;;;;;;;;;5014061;28;20485;-53
2021/12/22 10:53:02;;;;;;;6.23;5.63;;;;;;;;;;5014389;28;20403;-53
2021/12/22 10:55:41;;;;;;;6.03;5.43;;;;;;;;;;5013160;28;20553;-53
2021/12/22 10:58:19;;;;;;;6.73;6.03;;;;;;;;;;5013553;28;20413;-51
2021/12/22 11:00:58;;;;;;;6.90;6.20;;;;;;;;;;5014059;28;20442;-52
2021/12/22 11:03:33;;;;;;;7.17;5.90;;;;;;;;;;5013830;28;20413;-53
2021/12/22 11:06:01;;;;;;;8.40;6.33;;;;;;;;;;5012841;28;20426;-53
2021/12/22 11:08:27;;;;;;;7.57;5.93;;;;;;;;;;5013830;28;20853;-53
2021/12/22 11:10:53;;;;;;;9.83;5.73;;;;;;;;;;5013320;28;20563;-53
2021/12/22 11:13:20;;;;;;;7.60;5.87;;;;;;;;;;5012649;28;20405;-53
2021/12/22 11:15:46;;;;;;;5.90;5.27;;;;;;;;;;5012383;28;21075;-53
2021/12/22 11:18:25;;;;;;;6.10;5.50;;;;;;;;;;5011657;28;20911;-52
2021/12/22 11:21:10;;;;;;;5.83;5.10;;;;;;;;;;5012059;28;20900;-52
2021/12/22 11:23:36;;;;;;;7.70;5.77;;;;;;;;;;5012448;28;20409;-52
2021/12/22 11:26:03;;;;;;;6.43;4.73;;;;;;;;;;5012561;28;20535;-52
2021/12/22 11:28:29;;;;;;;6.13;5.53;;;;;;;;;;5013028;28;20432;-53
2021/12/22 11:30:56;;;;;;;6.47;5.73;;;;;;;;;;5013017;28;20935;-52
2021/12/22 11:33:23;;;;;;;5.80;5.07;;;;;;;;;;5012940;28;20496;-53
2021/12/22 11:35:50;;;;;;;8.60;5.00;;;;;;;;;;5012320;28;21012;-52
2021/12/22 11:38:16;;;;;;;6.90;4.73;;;;;;;;;;5013028;28;20417;-52
2021/12/22 11:40:51;;;;;;;7.03;5.90;;;;;;;;;;5012799;28;20430;-52
2021/12/22 11:43:17;;;;;;;8.30;5.70;;;;;;;;;;5011965;28;20415;-51
2021/12/22 11:45:45;;;;;;;6.07;5.47;;;;;;;;;;5011065;28;20433;-51
2021/12/22 11:48:11;;;;;;;7.47;6.00;;;;;;;;;;5013277;28;20957;-52
2021/12/22 11:50:37;;;;;;;5.57;5.00;;;;;;;;;;5012621;28;20464;-51
2021/12/22 11:53:04;;;;;;;6.90;5.23;;;;;;;;;;5012896;28;20413;-52
2021/12/22 11:55:43;;;;;;;9.43;5.20;;;;;;;;;;5011842;28;20987;-52
2021/12/22 11:58:15;;;;;;;6.33;5.03;;;;;;;;;;5012566;28;20433;-51
2021/12/22 12:00:42;;;;;;;5.50;4.50;;;;;;;;;;5011788;28;20448;-52
2021/12/22 12:03:28;;;;;;;4.77;4.37;;;;;;;;;;5012413;28;20409;-53
2021/12/22 12:06:02;;;;;;;7.10;5.40;;;;;;;;;;5011846;28;20470;-52
2021/12/22 12:08:33;;;;;;;7.23;5.00;;;;;;;;;;5012006;28;20864;-52
2021/12/22 12:10:59;;;;;;;5.90;5.13;;;;;;;;;;5012027;28;20855;-53
2021/12/22 12:13:35;;;;;;;6.90;5.50;;;;;;;;;;5011578;28;20430;-51
2021/12/22 12:22:09;;;;;;;7.63;5.23;;;;;;;;;;5031911;28;21013;-53
2021/12/22 12:25:07;;;;;;;5.93;4.90;;;;;;;;;;5031366;28;20967;-51
2021/12/22 12:27:33;;;;;;;5.50;4.90;;;;;;;;;;5008803;28;20199;-50
2021/12/22 12:30:02;;;;;;;6.37;5.77;;;;;;;;;;5031701;28;20995;-52
2021/12/22 12:32:40;;;;;;;5.10;4.70;;;;;;;;;;5031760;28;20479;-52
2021/12/22 12:35:19;;;;;;;7.40;5.05;;;;;;;;;;5031322;28;20471;-51
2021/12/22 12:38:00;;;;;;;5.93;5.25;;;;;;;;;;5032248;28;20165;-50
2021/12/22 12:40:45;;;;;;;5.55;5.05;;;;;;;;;;5031473;28;20172;-49
2021/12/22 12:43:11;;;;;;;5.65;5.15;;;;;;;;;;5031595;28;20686;-50
2021/12/22 12:45:47;;;;;;;5.57;4.77;;;;;;;;;;5031345;28;20219;-50
2021/12/22 12:48:24;;;;;;;5.68;5.10;;;;;;;;;;5031532;28;20413;-50
2021/12/22 12:51:09;;;;;;;7.47;5.78;;;;;;;;;;5031570;28;20266;-49
2021/12/22 12:53:55;;;;;;;6.97;5.72;;;;;;;;;;5030221;28;20168;-50
2021/12/22 12:56:21;;;;;;;9.30;5.70;;;;;;;;;;5030779;28;20668;-49
2021/12/22 12:58:53;;;;;;;5.63;4.95;;;;;;;;;;5031537;28;20176;-49
2021/12/22 13:01:19;;;;;;;6.43;5.40;;;;;;;;;;5031413;28;20164;-49
2021/12/22 13:03:49;;;;;;;6.28;5.10;;;;;;;;;;5031288;28;20251;-49
2021/12/22 13:06:15;;;;;;;6.15;4.75;;;;;;;;;;5030737;28;20187;-49
2021/12/22 13:08:44;;;;;;;5.47;5.00;;;;;;;;;;5031479;28;20164;-49
2021/12/22 13:11:14;;;;;;;10.63;5.28;;;;;;;;;;5031238;28;20203;-49
2021/12/22 13:16:25;;;;;;;6.20;4.80;;;;;;;;;;5030717;28;20618;-51
2021/12/22 13:18:51;;;;;;;5.03;4.30;;;;;;;;;;5031416;28;20168;-49
2021/12/22 13:21:16;;;;;;;5.67;5.07;;;;;;;;;;5033741;28;20399;-49
2021/12/22 13:23:42;;;;;;;7.30;4.20;;;;;;;;;;5035095;28;20395;-49
2021/12/22 13:26:08;;;;;;;11.17;5.27;;;;;;;;;;5034566;28;20480;-50
2021/12/22 13:28:36;;;;;;;6.50;4.80;;;;;;;;;;5035020;28;20427;-50
2021/12/22 13:31:06;;;;;;;7.90;5.78;;;;;;;;;;5035319;28;20458;-49
2021/12/22 13:33:35;;;;;;;4.95;4.55;;;;;;;;;;5035007;28;20248;-49
2021/12/22 13:36:03;;;;;;;6.13;4.70;;;;;;;;;;5034376;28;20215;-50
2021/12/22 13:38:35;;;;;;;6.40;4.85;;;;;;;;;;5034957;28;20247;-49
2021/12/22 13:41:04;;;;;;;6.60;5.88;;;;;;;;;;5034943;28;20191;-50
2021/12/22 13:43:56;;;;;;;9.70;5.32;;;;;;;;;;5034875;28;20246;-49
2021/12/22 13:46:27;;;;;;;5.70;4.57;;;;;;;;;;5033491;28;20191;-50
2021/12/22 13:48:55;;;;;;;7.38;5.55;;;;;;;;;;5033779;28;20190;-50
2021/12/22 13:51:29;;;;;;;7.97;5.50;;;;;;;;;;5033491;28;20260;-52
2021/12/22 13:53:56;;;;;;;5.87;5.00;;;;;;;;;;5034724;28;20168;-49
2021/12/22 13:56:23;;;;;;;9.90;5.27;;;;;;;;;;5032041;28;20419;-49
2021/12/22 13:58:55;;;;;;;6.90;4.57;;;;;;;;;;5034499;28;20476;-49
2021/12/22 14:01:28;;;;;;;5.80;5.20;;;;;;;;;;5034195;28;20411;-52
2021/12/22 14:04:00;;;;;;;6.33;4.77;;;;;;;;;;5034462;28;20412;-49
2021/12/22 14:06:27;;;;;;;5.10;4.60;;;;;;;;;;5033730;28;20455;-50
2021/12/22 14:09:01;;;;;;;4.93;4.33;;;;;;;;;;5034497;28;20478;-50
2021/12/22 14:11:28;;;;;;;6.67;5.60;;;;;;;;;;5034039;28;20419;-50
2021/12/22 14:13:54;;;;;;;6.83;6.13;;;;;;;;;;5034521;28;20458;-49
2021/12/22 14:16:29;;;;;;;5.20;4.20;;;;;;;;;;5033513;28;21002;-50
2021/12/22 14:18:56;;;;;;;7.13;5.97;;;;;;;;;;5034353;28;20886;-50
2021/12/22 14:21:23;;;;;;;6.53;5.40;;;;;;;;;;5032835;28;20410;-50
2021/12/22 14:24:07;;;;;;;6.68;5.65;;;;;;;;;;5034238;28;20409;-50
2021/12/22 14:26:33;;;;;;;7.00;5.25;;;;;;;;;;5032593;28;20187;-50
2021/12/22 14:29:06;;;;;;;5.20;4.70;;;;;;;;;;5033801;28;20711;-49
2021/12/22 14:31:38;;;;;;;6.28;4.95;;;;;;;;;;5033523;28;20403;-50
2021/12/22 14:34:07;;;;;;;6.80;4.90;;;;;;;;;;5034127;28;20194;-49
2021/12/22 14:36:46;;;;;;;7.03;5.57;;;;;;;;;;5033164;28;20237;-49
2021/12/22 14:39:13;;;;;;;9.23;5.80;;;;;;;;;;5034221;28;20195;-52
2021/12/22 14:41:39;;;;;;;8.68;5.50;;;;;;;;;;5033821;28;20540;-49
2021/12/22 14:44:18;;;;;;;6.20;5.30;;;;;;;;;;5033702;28;20164;-52
2021/12/22 14:46:44;;;;;;;7.65;6.10;;;;;;;;;;5031210;28;20219;-51
2021/12/22 14:49:17;;;;;;;5.80;5.10;;;;;;;;;;5031735;28;20242;-49
2021/12/22 14:51:45;;;;;;;8.05;5.93;;;;;;;;;;5032748;28;20179;-49
2021/12/22 14:54:12;;;;;;;7.38;5.80;;;;;;;;;;5033277;28;20671;-49
2021/12/22 14:56:39;;;;;;;7.60;5.70;;;;;;;;;;5031974;28;20437;-50
2021/12/22 14:59:05;;;;;;;6.00;5.50;;;;;;;;;;5033512;28;20194;-49
2021/12/22 15:01:31;;;;;;;5.77;5.13;;;;;;;;;;5033471;28;20262;-49